sensor_id;sensor_type;location;lat;lon;timestamp;pressure;altitude;pressure_sealevel;temperature;humidity
13867;BME280;7003;46.982;15.248;2023-03-31T00:01:13;96934.97;;;7.67;100.00
13867;BME280;7003;46.982;15.248;2023-03-31T00:03:40;96941.50;;;7.61;100.00
13867;BME280;7003;46.982;15.248;2023-03-31T00:06:11;96949.59;;;7.39;100.00
13867;BME280;7003;46.982;15.248;2023-03-31T00:08:42;96940.28;;;7.50;100.00
13867;BME280;7003;46.982;15.248;2023-03-31T00:11:11;96938.88;;;7.69;100.00
13867;BME280;7003;46.982;15.248;2023-03-31T00:13:41;96944.34;;;7.73;100.00
13867;BME280;7003;46.982;15.248;2023-03-31T00:16:10;96939.47;;;7.32;100.00
13867;BME280;7003;46.982;15.248;2023-03-31T00:18:37;96939.94;;;7.60;100.00
13867;BME280;7003;46.982;15.248;2023-03-31T00:21:16;96947.38;;;7.23;100.00
13867;BME280;7003;46.982;15.248;2023-03-31T00:23:50;96938.59;;;7.06;100.00
13867;BME280;7003;46.982;15.248;2023-03-31T00:26:21;96944.97;;;6.96;100.00
13867;BME280;7003;46.982;15.248;2023-03-31T00:28:51;96943.44;;;7.04;100.00
13867;BME280;7003;46.982;15.248;2023-03-31T00:31:18;96941.03;;;6.85;100.00
13867;BME280;7003;46.982;15.248;2023-03-31T00:33:46;96941.88;;;7.03;100.00
13867;BME280;7003;46.982;15.248;2023-03-31T00:36:14;96933.91;;;6.94;100.00
13867;BME280;7003;46.982;15.248;2023-03-31T00:38:46;96937.44;;;6.89;100.00
13867;BME280;7003;46.982;15.248;2023-03-31T00:41:16;96935.44;;;6.86;100.00
13867;BME280;7003;46.982;15.248;2023-03-31T00:44:00;96944.91;;;6.79;100.00
13867;BME280;7003;46.982;15.248;2023-03-31T00:46:30;96939.91;;;6.77;100.00
13867;BME280;7003;46.982;15.248;2023-03-31T00:49:00;96929.63;;;6.76;100.00
13867;BME280;7003;46.982;15.248;2023-03-31T00:51:31;96933.69;;;6.73;100.00
13867;BME280;7003;46.982;15.248;2023-03-31T00:54:02;96938.78;;;6.70;100.00
13867;BME280;7003;46.982;15.248;2023-03-31T00:56:35;96933.50;;;6.70;100.00
13867;BME280;7003;46.982;15.248;2023-03-31T00:59:08;96936.06;;;6.92;100.00
13867;BME280;7003;46.982;15.248;2023-03-31T01:01:37;96932.94;;;6.90;100.00
13867;BME280;7003;46.982;15.248;2023-03-31T01:04:07;96926.47;;;6.96;100.00
13867;BME280;7003;46.982;15.248;2023-03-31T01:06:43;96924.00;;;7.08;100.00
13867;BME280;7003;46.982;15.248;2023-03-31T01:09:15;96921.00;;;6.92;100.00
13867;BME280;7003;46.982;15.248;2023-03-31T01:11:46;96916.63;;;6.88;100.00
13867;BME280;7003;46.982;15.248;2023-03-31T01:14:17;96911.84;;;7.07;100.00
13867;BME280;7003;46.982;15.248;2023-03-31T01:16:45;96905.34;;;6.74;100.00
13867;BME280;7003;46.982;15.248;2023-03-31T01:19:17;96910.63;;;6.65;100.00
13867;BME280;7003;46.982;15.248;2023-03-31T01:22:15;96907.22;;;6.65;100.00
13867;BME280;7003;46.982;15.248;2023-03-31T01:25:08;96899.69;;;6.49;100.00
13867;BME280;7003;46.982;15.248;2023-03-31T01:28:07;96899.88;;;6.62;100.00
13867;BME280;7003;46.982;15.248;2023-03-31T01:34:02;96890.09;;;6.31;100.00
13867;BME280;7003;46.982;15.248;2023-03-31T01:37:11;96885.84;;;6.52;100.00
13867;BME280;7003;46.982;15.248;2023-03-31T01:39:58;96894.13;;;6.60;100.00
13867;BME280;7003;46.982;15.248;2023-03-31T01:42:33;96884.25;;;6.43;100.00
13867;BME280;7003;46.982;15.248;2023-03-31T01:45:11;96889.88;;;6.81;100.00
13867;BME280;7003;46.982;15.248;2023-03-31T01:47:45;96888.44;;;6.44;100.00
13867;BME280;7003;46.982;15.248;2023-03-31T01:50:21;96880.75;;;6.25;100.00
13867;BME280;7003;46.982;15.248;2023-03-31T01:52:57;96878.97;;;6.12;100.00
13867;BME280;7003;46.982;15.248;2023-03-31T01:55:34;96880.31;;;6.01;100.00
13867;BME280;7003;46.982;15.248;2023-03-31T01:58:08;96887.22;;;5.88;100.00
13867;BME280;7003;46.982;15.248;2023-03-31T02:00:40;96872.31;;;5.92;100.00
13867;BME280;7003;46.982;15.248;2023-03-31T02:03:14;96866.75;;;5.94;100.00
13867;BME280;7003;46.982;15.248;2023-03-31T02:05:46;96869.88;;;5.96;100.00
13867;BME280;7003;46.982;15.248;2023-03-31T02:08:20;96858.94;;;5.89;100.00
13867;BME280;7003;46.982;15.248;2023-03-31T02:10:53;96846.03;;;5.87;100.00
13867;BME280;7003;46.982;15.248;2023-03-31T02:13:24;96857.44;;;5.96;100.00
13867;BME280;7003;46.982;15.248;2023-03-31T02:15:54;96856.19;;;5.94;100.00
13867;BME280;7003;46.982;15.248;2023-03-31T02:18:26;96849.56;;;5.82;100.00
13867;BME280;7003;46.982;15.248;2023-03-31T02:20:57;96857.13;;;5.98;100.00
13867;BME280;7003;46.982;15.248;2023-03-31T02:23:26;96864.69;;;5.68;100.00
13867;BME280;7003;46.982;15.248;2023-03-31T02:26:02;96862.41;;;5.75;100.00
13867;BME280;7003;46.982;15.248;2023-03-31T02:28:31;96857.03;;;5.80;100.00
13867;BME280;7003;46.982;15.248;2023-03-31T02:31:11;96861.09;;;5.87;100.00
13867;BME280;7003;46.982;15.248;2023-03-31T02:33:39;96859.75;;;5.75;100.00
13867;BME280;7003;46.982;15.248;2023-03-31T02:36:07;96856.53;;;5.56;100.00
13867;BME280;7003;46.982;15.248;2023-03-31T02:38:39;96857.16;;;5.39;100.00
13867;BME280;7003;46.982;15.248;2023-03-31T02:41:10;96850.13;;;5.35;100.00
13867;BME280;7003;46.982;15.248;2023-03-31T02:43:39;96849.06;;;5.36;100.00
13867;BME280;7003;46.982;15.248;2023-03-31T02:46:07;96847.03;;;5.33;100.00
13867;BME280;7003;46.982;15.248;2023-03-31T02:48:36;96848.06;;;5.10;100.00
13867;BME280;7003;46.982;15.248;2023-03-31T02:51:32;96847.31;;;5.31;100.00
13867;BME280;7003;46.982;15.248;2023-03-31T02:54:19;96849.69;;;5.33;100.00
13867;BME280;7003;46.982;15.248;2023-03-31T02:59:57;96850.66;;;5.23;100.00
13867;BME280;7003;46.982;15.248;2023-03-31T03:02:39;96861.25;;;5.10;100.00
13867;BME280;7003;46.982;15.248;2023-03-31T03:05:29;96853.56;;;4.99;100.00
13867;BME280;7003;46.982;15.248;2023-03-31T03:08:10;96844.59;;;4.87;100.00
13867;BME280;7003;46.982;15.248;2023-03-31T03:10:49;96836.88;;;4.77;100.00
13867;BME280;7003;46.982;15.248;2023-03-31T03:13:30;96845.59;;;4.77;100.00
13867;BME280;7003;46.982;15.248;2023-03-31T03:16:08;96836.53;;;5.06;100.00
13867;BME280;7003;46.982;15.248;2023-03-31T03:18:39;96844.38;;;5.11;100.00
13867;BME280;7003;46.982;15.248;2023-03-31T03:21:07;96840.28;;;4.91;100.00
13867;BME280;7003;46.982;15.248;2023-03-31T03:23:36;96832.53;;;4.72;100.00
13867;BME280;7003;46.982;15.248;2023-03-31T03:26:05;96828.69;;;4.78;100.00
13867;BME280;7003;46.982;15.248;2023-03-31T03:28:37;96829.97;;;4.53;100.00
13867;BME280;7003;46.982;15.248;2023-03-31T03:31:05;96833.50;;;4.49;100.00
13867;BME280;7003;46.982;15.248;2023-03-31T03:33:34;96833.28;;;4.45;100.00
13867;BME280;7003;46.982;15.248;2023-03-31T03:36:01;96830.00;;;4.40;100.00
13867;BME280;7003;46.982;15.248;2023-03-31T03:38:30;96825.94;;;4.01;100.00
13867;BME280;7003;46.982;15.248;2023-03-31T03:40:57;96830.22;;;3.97;100.00
13867;BME280;7003;46.982;15.248;2023-03-31T03:43:25;96820.31;;;4.35;100.00
13867;BME280;7003;46.982;15.248;2023-03-31T03:45:54;96820.03;;;4.23;100.00
13867;BME280;7003;46.982;15.248;2023-03-31T03:48:23;96817.69;;;4.21;100.00
13867;BME280;7003;46.982;15.248;2023-03-31T03:50:51;96822.28;;;4.30;100.00
13867;BME280;7003;46.982;15.248;2023-03-31T03:53:19;96810.47;;;4.27;100.00
13867;BME280;7003;46.982;15.248;2023-03-31T03:55:47;96812.69;;;4.75;100.00
13867;BME280;7003;46.982;15.248;2023-03-31T03:58:17;96802.97;;;4.48;100.00
13867;BME280;7003;46.982;15.248;2023-03-31T04:00:45;96804.22;;;4.37;100.00
13867;BME280;7003;46.982;15.248;2023-03-31T04:03:16;96802.59;;;4.41;100.00
13867;BME280;7003;46.982;15.248;2023-03-31T04:05:46;96801.03;;;4.40;100.00
13867;BME280;7003;46.982;15.248;2023-03-31T04:08:17;96792.63;;;4.38;100.00
13867;BME280;7003;46.982;15.248;2023-03-31T04:10:44;96793.31;;;4.30;100.00
13867;BME280;7003;46.982;15.248;2023-03-31T04:13:14;96791.06;;;4.37;100.00
13867;BME280;7003;46.982;15.248;2023-03-31T04:15:41;96787.16;;;4.34;100.00
13867;BME280;7003;46.982;15.248;2023-03-31T04:18:11;96788.91;;;4.11;100.00
13867;BME280;7003;46.982;15.248;2023-03-31T04:20:49;96794.94;;;3.98;100.00
13867;BME280;7003;46.982;15.248;2023-03-31T04:23:31;96786.38;;;4.20;100.00
13867;BME280;7003;46.982;15.248;2023-03-31T04:25:59;96790.97;;;4.14;100.00
13867;BME280;7003;46.982;15.248;2023-03-31T04:28:31;96787.38;;;4.10;100.00
13867;BME280;7003;46.982;15.248;2023-03-31T04:31:00;96779.53;;;4.05;100.00
13867;BME280;7003;46.982;15.248;2023-03-31T04:33:29;96781.22;;;4.01;100.00
13867;BME280;7003;46.982;15.248;2023-03-31T04:36:03;96783.91;;;3.96;100.00
13867;BME280;7003;46.982;15.248;2023-03-31T04:38:32;96776.78;;;3.83;100.00
13867;BME280;7003;46.982;15.248;2023-03-31T04:41:05;96780.09;;;3.88;100.00
13867;BME280;7003;46.982;15.248;2023-03-31T04:43:35;96770.91;;;3.72;100.00
13867;BME280;7003;46.982;15.248;2023-03-31T04:46:04;96752.31;;;3.69;100.00
13867;BME280;7003;46.982;15.248;2023-03-31T04:48:34;96745.63;;;3.90;100.00
13867;BME280;7003;46.982;15.248;2023-03-31T04:51:06;96744.06;;;4.16;100.00
13867;BME280;7003;46.982;15.248;2023-03-31T04:53:36;96759.56;;;4.04;100.00
13867;BME280;7003;46.982;15.248;2023-03-31T04:56:08;96760.16;;;4.01;100.00
13867;BME280;7003;46.982;15.248;2023-03-31T04:58:39;96767.34;;;3.82;100.00
13867;BME280;7003;46.982;15.248;2023-03-31T05:01:13;96757.31;;;3.70;100.00
13867;BME280;7003;46.982;15.248;2023-03-31T05:03:44;96760.63;;;3.76;100.00
13867;BME280;7003;46.982;15.248;2023-03-31T05:06:17;96758.09;;;3.84;100.00
13867;BME280;7003;46.982;15.248;2023-03-31T05:08:49;96757.31;;;3.84;100.00
13867;BME280;7003;46.982;15.248;2023-03-31T05:11:19;96749.91;;;3.86;100.00
13867;BME280;7003;46.982;15.248;2023-03-31T05:13:49;96748.16;;;3.95;100.00
13867;BME280;7003;46.982;15.248;2023-03-31T05:16:17;96753.44;;;4.09;100.00
13867;BME280;7003;46.982;15.248;2023-03-31T05:18:47;96751.84;;;3.80;100.00
13867;BME280;7003;46.982;15.248;2023-03-31T05:21:19;96754.78;;;3.79;100.00
13867;BME280;7003;46.982;15.248;2023-03-31T05:23:49;96752.06;;;3.84;100.00
13867;BME280;7003;46.982;15.248;2023-03-31T05:26:19;96753.34;;;4.00;100.00
13867;BME280;7003;46.982;15.248;2023-03-31T05:28:51;96740.34;;;4.04;100.00
13867;BME280;7003;46.982;15.248;2023-03-31T05:31:22;96741.53;;;3.98;100.00
13867;BME280;7003;46.982;15.248;2023-03-31T05:33:55;96747.47;;;3.90;100.00
13867;BME280;7003;46.982;15.248;2023-03-31T05:36:24;96737.16;;;3.93;100.00
13867;BME280;7003;46.982;15.248;2023-03-31T05:38:53;96728.25;;;4.03;100.00
13867;BME280;7003;46.982;15.248;2023-03-31T05:41:23;96729.16;;;4.25;100.00
13867;BME280;7003;46.982;15.248;2023-03-31T05:43:57;96715.97;;;4.75;100.00
13867;BME280;7003;46.982;15.248;2023-03-31T05:46:27;96719.03;;;4.69;100.00
13867;BME280;7003;46.982;15.248;2023-03-31T05:48:58;96705.28;;;4.58;100.00
13867;BME280;7003;46.982;15.248;2023-03-31T05:51:31;96701.75;;;4.40;100.00
13867;BME280;7003;46.982;15.248;2023-03-31T05:54:04;96700.84;;;4.45;100.00
13867;BME280;7003;46.982;15.248;2023-03-31T05:56:34;96698.53;;;4.65;100.00
13867;BME280;7003;46.982;15.248;2023-03-31T05:59:05;96683.09;;;4.73;100.00
13867;BME280;7003;46.982;15.248;2023-03-31T06:01:36;96675.47;;;4.85;100.00
13867;BME280;7003;46.982;15.248;2023-03-31T06:04:05;96668.56;;;4.97;100.00
13867;BME280;7003;46.982;15.248;2023-03-31T06:06:41;96667.06;;;5.05;100.00
13867;BME280;7003;46.982;15.248;2023-03-31T06:09:13;96663.50;;;5.32;100.00
13867;BME280;7003;46.982;15.248;2023-03-31T06:11:43;96654.19;;;5.34;100.00
13867;BME280;7003;46.982;15.248;2023-03-31T06:14:16;96653.31;;;5.39;100.00
13867;BME280;7003;46.982;15.248;2023-03-31T06:16:49;96646.66;;;5.41;100.00
13867;BME280;7003;46.982;15.248;2023-03-31T06:19:20;96642.28;;;5.37;100.00
13867;BME280;7003;46.982;15.248;2023-03-31T06:21:55;96637.25;;;5.27;100.00
13867;BME280;7003;46.982;15.248;2023-03-31T06:24:26;96636.38;;;5.31;100.00
13867;BME280;7003;46.982;15.248;2023-03-31T06:26:55;96629.56;;;5.39;100.00
13867;BME280;7003;46.982;15.248;2023-03-31T06:29:27;96627.78;;;5.57;100.00
13867;BME280;7003;46.982;15.248;2023-03-31T06:32:00;96621.84;;;5.91;100.00
13867;BME280;7003;46.982;15.248;2023-03-31T06:34:31;96625.47;;;6.03;100.00
13867;BME280;7003;46.982;15.248;2023-03-31T06:37:01;96626.25;;;6.21;100.00
13867;BME280;7003;46.982;15.248;2023-03-31T06:39:32;96627.53;;;6.32;100.00
13867;BME280;7003;46.982;15.248;2023-03-31T06:42:01;96621.78;;;6.39;100.00
13867;BME280;7003;46.982;15.248;2023-03-31T06:44:33;96633.13;;;6.74;100.00
13867;BME280;7003;46.982;15.248;2023-03-31T06:47:03;96629.19;;;7.14;100.00
13867;BME280;7003;46.982;15.248;2023-03-31T06:49:33;96626.69;;;7.64;100.00
13867;BME280;7003;46.982;15.248;2023-03-31T06:52:04;96636.88;;;7.83;100.00
13867;BME280;7003;46.982;15.248;2023-03-31T06:54:34;96636.38;;;7.90;100.00
13867;BME280;7003;46.982;15.248;2023-03-31T06:57:05;96624.31;;;8.01;100.00
13867;BME280;7003;46.982;15.248;2023-03-31T06:59:35;96614.50;;;8.01;100.00
13867;BME280;7003;46.982;15.248;2023-03-31T07:02:04;96611.78;;;7.89;100.00
13867;BME280;7003;46.982;15.248;2023-03-31T07:04:38;96611.81;;;7.81;100.00
13867;BME280;7003;46.982;15.248;2023-03-31T07:07:15;96608.38;;;7.89;100.00
13867;BME280;7003;46.982;15.248;2023-03-31T07:09:51;96598.31;;;8.03;100.00
13867;BME280;7003;46.982;15.248;2023-03-31T07:12:26;96586.94;;;8.02;100.00
13867;BME280;7003;46.982;15.248;2023-03-31T07:14:57;96583.50;;;8.23;100.00
13867;BME280;7003;46.982;15.248;2023-03-31T07:17:25;96583.72;;;8.38;100.00
13867;BME280;7003;46.982;15.248;2023-03-31T07:19:53;96588.13;;;8.55;100.00
13867;BME280;7003;46.982;15.248;2023-03-31T07:22:22;96584.47;;;8.80;100.00
13867;BME280;7003;46.982;15.248;2023-03-31T07:24:50;96582.00;;;8.96;100.00
13867;BME280;7003;46.982;15.248;2023-03-31T07:27:18;96591.78;;;9.29;100.00
13867;BME280;7003;46.982;15.248;2023-03-31T07:29:46;96594.91;;;9.55;100.00
13867;BME280;7003;46.982;15.248;2023-03-31T07:32:13;96595.44;;;9.60;100.00
13867;BME280;7003;46.982;15.248;2023-03-31T07:34:43;96589.72;;;9.71;100.00
13867;BME280;7003;46.982;15.248;2023-03-31T07:37:11;96585.28;;;9.87;100.00
13867;BME280;7003;46.982;15.248;2023-03-31T07:39:41;96580.72;;;9.99;100.00
13867;BME280;7003;46.982;15.248;2023-03-31T07:42:08;96583.94;;;10.17;100.00
13867;BME280;7003;46.982;15.248;2023-03-31T07:44:37;96569.50;;;10.30;100.00
13867;BME280;7003;46.982;15.248;2023-03-31T07:47:05;96563.25;;;10.51;100.00
13867;BME280;7003;46.982;15.248;2023-03-31T07:49:34;96564.41;;;10.65;100.00
13867;BME280;7003;46.982;15.248;2023-03-31T07:52:02;96559.78;;;10.90;100.00
13867;BME280;7003;46.982;15.248;2023-03-31T07:54:30;96564.56;;;11.00;100.00
13867;BME280;7003;46.982;15.248;2023-03-31T07:56:59;96560.13;;;11.04;100.00
13867;BME280;7003;46.982;15.248;2023-03-31T07:59:30;96554.38;;;11.18;100.00
13867;BME280;7003;46.982;15.248;2023-03-31T08:02:00;96545.56;;;11.30;100.00
13867;BME280;7003;46.982;15.248;2023-03-31T08:04:28;96552.94;;;11.36;100.00
13867;BME280;7003;46.982;15.248;2023-03-31T08:06:58;96543.06;;;11.37;100.00
13867;BME280;7003;46.982;15.248;2023-03-31T08:09:28;96536.78;;;11.45;100.00
13867;BME280;7003;46.982;15.248;2023-03-31T08:11:59;96531.34;;;11.57;100.00
13867;BME280;7003;46.982;15.248;2023-03-31T08:14:27;96534.47;;;11.59;100.00
13867;BME280;7003;46.982;15.248;2023-03-31T08:16:55;96529.44;;;11.73;100.00
13867;BME280;7003;46.982;15.248;2023-03-31T08:19:25;96532.72;;;11.82;100.00
13867;BME280;7003;46.982;15.248;2023-03-31T08:21:54;96505.75;;;11.84;100.00
13867;BME280;7003;46.982;15.248;2023-03-31T08:24:24;96503.56;;;11.89;100.00
13867;BME280;7003;46.982;15.248;2023-03-31T08:26:54;96496.41;;;11.93;100.00
13867;BME280;7003;46.982;15.248;2023-03-31T08:29:24;96501.34;;;12.11;100.00
13867;BME280;7003;46.982;15.248;2023-03-31T08:31:54;96510.06;;;12.08;100.00
13867;BME280;7003;46.982;15.248;2023-03-31T08:34:25;96496.50;;;12.16;100.00
13867;BME280;7003;46.982;15.248;2023-03-31T08:36:57;96493.50;;;12.18;100.00
13867;BME280;7003;46.982;15.248;2023-03-31T08:39:27;96509.19;;;12.04;100.00
13867;BME280;7003;46.982;15.248;2023-03-31T08:41:59;96495.03;;;12.19;100.00
13867;BME280;7003;46.982;15.248;2023-03-31T08:44:33;96497.53;;;11.92;100.00
13867;BME280;7003;46.982;15.248;2023-03-31T08:47:04;96490.75;;;11.95;100.00
13867;BME280;7003;46.982;15.248;2023-03-31T08:49:39;96486.63;;;12.17;100.00
13867;BME280;7003;46.982;15.248;2023-03-31T08:52:14;96459.88;;;12.32;100.00
13867;BME280;7003;46.982;15.248;2023-03-31T08:54:47;96450.56;;;12.65;100.00
13867;BME280;7003;46.982;15.248;2023-03-31T08:57:24;96435.66;;;13.09;100.00
13867;BME280;7003;46.982;15.248;2023-03-31T08:59:54;96432.22;;;13.58;100.00
13867;BME280;7003;46.982;15.248;2023-03-31T09:02:30;96424.81;;;14.38;100.00
13867;BME280;7003;46.982;15.248;2023-03-31T09:05:18;96405.66;;;15.17;100.00
13867;BME280;7003;46.982;15.248;2023-03-31T09:07:55;96407.25;;;15.87;100.00
13867;BME280;7003;46.982;15.248;2023-03-31T09:10:33;96404.31;;;16.31;100.00
13867;BME280;7003;46.982;15.248;2023-03-31T09:13:10;96413.19;;;16.52;100.00
13867;BME280;7003;46.982;15.248;2023-03-31T09:15:48;96404.22;;;15.99;100.00
13867;BME280;7003;46.982;15.248;2023-03-31T09:18:26;96397.91;;;16.64;100.00
13867;BME280;7003;46.982;15.248;2023-03-31T09:21:00;96394.81;;;17.04;88.78
13867;BME280;7003;46.982;15.248;2023-03-31T09:23:34;96392.91;;;17.08;94.11
13867;BME280;7003;46.982;15.248;2023-03-31T09:26:03;96385.19;;;17.63;83.11
13867;BME280;7003;46.982;15.248;2023-03-31T09:28:35;96396.47;;;18.21;73.53
13867;BME280;7003;46.982;15.248;2023-03-31T09:31:12;96398.66;;;17.31;77.03
13867;BME280;7003;46.982;15.248;2023-03-31T09:33:43;96374.84;;;16.55;73.52
13867;BME280;7003;46.982;15.248;2023-03-31T09:36:15;96369.91;;;17.00;71.81
13867;BME280;7003;46.982;15.248;2023-03-31T09:38:46;96357.63;;;16.92;75.42
13867;BME280;7003;46.982;15.248;2023-03-31T09:41:16;96343.75;;;17.33;76.71
13867;BME280;7003;46.982;15.248;2023-03-31T09:43:45;96337.50;;;17.60;77.79
13867;BME280;7003;46.982;15.248;2023-03-31T09:46:25;96350.03;;;18.06;76.15
13867;BME280;7003;46.982;15.248;2023-03-31T09:49:00;96359.34;;;18.60;71.73
13867;BME280;7003;46.982;15.248;2023-03-31T09:51:34;96360.25;;;18.91;69.95
13867;BME280;7003;46.982;15.248;2023-03-31T09:54:09;96350.44;;;18.70;69.57
13867;BME280;7003;46.982;15.248;2023-03-31T09:56:46;96333.94;;;18.61;69.50
13867;BME280;7003;46.982;15.248;2023-03-31T09:59:17;96334.69;;;17.99;73.82
13867;BME280;7003;46.982;15.248;2023-03-31T10:01:49;96318.97;;;17.94;74.19
13867;BME280;7003;46.982;15.248;2023-03-31T10:04:24;96322.91;;;17.68;73.85
13867;BME280;7003;46.982;15.248;2023-03-31T10:06:54;96337.56;;;17.50;74.31
13867;BME280;7003;46.982;15.248;2023-03-31T10:09:25;96342.22;;;17.28;75.48
13867;BME280;7003;46.982;15.248;2023-03-31T10:11:58;96343.00;;;17.14;78.20
13867;BME280;7003;46.982;15.248;2023-03-31T10:14:37;96330.00;;;17.02;77.38
13867;BME280;7003;46.982;15.248;2023-03-31T10:17:13;96326.91;;;16.65;78.17
13867;BME280;7003;46.982;15.248;2023-03-31T10:19:47;96328.44;;;16.41;83.36
13867;BME280;7003;46.982;15.248;2023-03-31T10:22:26;96313.03;;;16.13;82.86
13867;BME280;7003;46.982;15.248;2023-03-31T10:25:07;96300.78;;;16.01;85.19
13867;BME280;7003;46.982;15.248;2023-03-31T10:27:39;96295.38;;;15.91;89.13
13867;BME280;7003;46.982;15.248;2023-03-31T10:30:11;96315.19;;;15.65;94.07
13867;BME280;7003;46.982;15.248;2023-03-31T10:32:48;96296.81;;;15.56;94.73
13867;BME280;7003;46.982;15.248;2023-03-31T10:35:22;96288.78;;;15.67;94.85
13867;BME280;7003;46.982;15.248;2023-03-31T10:37:56;96279.56;;;15.54;91.57
13867;BME280;7003;46.982;15.248;2023-03-31T10:40:27;96281.03;;;15.48;90.87
13867;BME280;7003;46.982;15.248;2023-03-31T10:43:02;96272.97;;;15.40;88.49
13867;BME280;7003;46.982;15.248;2023-03-31T10:45:37;96272.13;;;15.26;91.17
13867;BME280;7003;46.982;15.248;2023-03-31T10:48:20;96266.88;;;15.47;89.16
13867;BME280;7003;46.982;15.248;2023-03-31T10:50:50;96253.53;;;15.61;87.39
13867;BME280;7003;46.982;15.248;2023-03-31T10:53:18;96243.88;;;15.39;76.57
13867;BME280;7003;46.982;15.248;2023-03-31T10:56:01;96250.09;;;15.61;77.89
13867;BME280;7003;46.982;15.248;2023-03-31T10:58:51;96244.72;;;15.64;77.65
13867;BME280;7003;46.982;15.248;2023-03-31T11:01:32;96230.16;;;15.58;74.78
13867;BME280;7003;46.982;15.248;2023-03-31T11:04:19;96215.66;;;15.70;70.03
13867;BME280;7003;46.982;15.248;2023-03-31T11:06:56;96206.06;;;15.55;71.63
13867;BME280;7003;46.982;15.248;2023-03-31T11:09:43;96193.78;;;15.64;71.86
13867;BME280;7003;46.982;15.248;2023-03-31T11:12:19;96197.66;;;15.70;70.36
13867;BME280;7003;46.982;15.248;2023-03-31T11:15:03;96191.53;;;16.27;69.67
13867;BME280;7003;46.982;15.248;2023-03-31T11:17:41;96168.97;;;16.17;66.28
13867;BME280;7003;46.982;15.248;2023-03-31T11:20:20;96162.00;;;16.66;68.77
13867;BME280;7003;46.982;15.248;2023-03-31T11:22:59;96173.03;;;17.03;66.69
13867;BME280;7003;46.982;15.248;2023-03-31T11:25:39;96161.84;;;17.12;63.21
13867;BME280;7003;46.982;15.248;2023-03-31T11:28:33;96140.03;;;16.96;59.73
13867;BME280;7003;46.982;15.248;2023-03-31T11:31:16;96146.16;;;16.96;59.84
13867;BME280;7003;46.982;15.248;2023-03-31T11:34:10;96151.09;;;17.15;64.11
13867;BME280;7003;46.982;15.248;2023-03-31T11:36:57;96155.94;;;17.42;61.39
13867;BME280;7003;46.982;15.248;2023-03-31T11:39:40;96140.41;;;17.71;63.15
13867;BME280;7003;46.982;15.248;2023-03-31T11:42:15;96135.97;;;17.98;61.17
13867;BME280;7003;46.982;15.248;2023-03-31T11:44:49;96133.28;;;18.01;57.53
13867;BME280;7003;46.982;15.248;2023-03-31T11:47:24;96142.25;;;17.84;59.44
13867;BME280;7003;46.982;15.248;2023-03-31T11:49:54;96153.59;;;18.06;59.02
13867;BME280;7003;46.982;15.248;2023-03-31T11:52:32;96145.97;;;17.97;62.94
13867;BME280;7003;46.982;15.248;2023-03-31T11:55:04;96139.41;;;18.43;60.10
13867;BME280;7003;46.982;15.248;2023-03-31T11:57:37;96138.88;;;18.62;58.20
13867;BME280;7003;46.982;15.248;2023-03-31T12:00:14;96133.13;;;18.60;58.93
13867;BME280;7003;46.982;15.248;2023-03-31T12:02:50;96118.16;;;18.90;58.81
13867;BME280;7003;46.982;15.248;2023-03-31T12:05:23;96112.13;;;19.39;58.37
13867;BME280;7003;46.982;15.248;2023-03-31T12:08:00;96115.63;;;19.90;53.96
13867;BME280;7003;46.982;15.248;2023-03-31T12:10:34;96126.97;;;20.28;55.52
13867;BME280;7003;46.982;15.248;2023-03-31T12:13:12;96110.59;;;19.92;54.49
13867;BME280;7003;46.982;15.248;2023-03-31T12:15:51;96103.78;;;17.87;58.94
13867;BME280;7003;46.982;15.248;2023-03-31T12:18:29;96102.28;;;17.83;62.38
13867;BME280;7003;46.982;15.248;2023-03-31T12:21:02;96106.91;;;18.27;59.11
13867;BME280;7003;46.982;15.248;2023-03-31T12:23:40;96099.00;;;18.05;58.93
13867;BME280;7003;46.982;15.248;2023-03-31T12:26:22;96103.06;;;17.24;59.24
13867;BME280;7003;46.982;15.248;2023-03-31T12:29:02;96103.91;;;17.07;60.03
13867;BME280;7003;46.982;15.248;2023-03-31T12:31:31;96096.41;;;16.70;57.61
13867;BME280;7003;46.982;15.248;2023-03-31T12:34:04;96082.94;;;16.74;60.80
13867;BME280;7003;46.982;15.248;2023-03-31T12:36:45;96078.31;;;16.85;60.40
13867;BME280;7003;46.982;15.248;2023-03-31T12:39:30;96069.59;;;16.49;59.23
13867;BME280;7003;46.982;15.248;2023-03-31T12:42:13;96059.94;;;16.76;63.55
13867;BME280;7003;46.982;15.248;2023-03-31T12:44:57;96056.47;;;16.76;58.73
13867;BME280;7003;46.982;15.248;2023-03-31T12:47:45;96048.81;;;16.78;57.64
13867;BME280;7003;46.982;15.248;2023-03-31T12:50:31;96045.03;;;16.61;60.24
13867;BME280;7003;46.982;15.248;2023-03-31T12:53:13;96036.22;;;16.53;59.57
13867;BME280;7003;46.982;15.248;2023-03-31T12:55:46;96020.94;;;16.36;56.35
13867;BME280;7003;46.982;15.248;2023-03-31T12:58:42;96029.34;;;16.49;62.56
13867;BME280;7003;46.982;15.248;2023-03-31T13:01:13;96024.03;;;16.31;61.80
13867;BME280;7003;46.982;15.248;2023-03-31T13:04:16;96020.19;;;16.36;58.60
13867;BME280;7003;46.982;15.248;2023-03-31T13:06:55;96030.22;;;16.17;61.34
13867;BME280;7003;46.982;15.248;2023-03-31T13:09:54;96028.69;;;16.06;60.96
13867;BME280;7003;46.982;15.248;2023-03-31T13:12:25;96021.44;;;15.99;63.09
13867;BME280;7003;46.982;15.248;2023-03-31T13:15:04;96029.09;;;16.01;62.60
13867;BME280;7003;46.982;15.248;2023-03-31T13:17:56;96021.06;;;16.01;61.80
13867;BME280;7003;46.982;15.248;2023-03-31T13:20:35;96022.94;;;16.18;62.70
13867;BME280;7003;46.982;15.248;2023-03-31T13:23:16;96011.34;;;16.39;63.58
13867;BME280;7003;46.982;15.248;2023-03-31T13:26:18;96012.47;;;16.48;61.64
13867;BME280;7003;46.982;15.248;2023-03-31T13:32:19;95978.34;;;16.45;59.67
13867;BME280;7003;46.982;15.248;2023-03-31T13:34:55;95983.34;;;16.43;59.27
13867;BME280;7003;46.982;15.248;2023-03-31T13:37:52;95989.13;;;16.38;60.91
13867;BME280;7003;46.982;15.248;2023-03-31T13:46:49;95966.66;;;15.90;60.08
13867;BME280;7003;46.982;15.248;2023-03-31T13:49:45;95957.13;;;15.78;62.17
13867;BME280;7003;46.982;15.248;2023-03-31T13:52:30;95952.09;;;16.01;64.40